sensor_id;sensor_type;location;lat;lon;timestamp;pressure;altitude;pressure_sealevel;temperature;humidity
51083;BME280;37131;42.694;23.350;2023-11-19T00:01:16;95483.44;;;2.94;88.54
51083;BME280;37131;42.694;23.350;2023-11-19T00:03:42;95493.13;;;3.15;87.94
51083;BME280;37131;42.694;23.350;2023-11-19T00:06:07;95480.41;;;2.91;88.37
51083;BME280;37131;42.694;23.350;2023-11-19T00:08:35;95489.31;;;2.80;88.58
51083;BME280;37131;42.694;23.350;2023-11-19T00:11:00;95489.66;;;2.77;89.01
51083;BME280;37131;42.694;23.350;2023-11-19T00:13:26;95483.31;;;2.88;90.11
51083;BME280;37131;42.694;23.350;2023-11-19T00:15:51;95476.31;;;3.05;89.12
51083;BME280;37131;42.694;23.350;2023-11-19T00:18:18;95485.41;;;3.15;88.08
51083;BME280;37131;42.694;23.350;2023-11-19T00:20:43;95479.78;;;2.89;87.75
51083;BME280;37131;42.694;23.350;2023-11-19T00:23:10;95483.81;;;2.83;88.33
51083;BME280;37131;42.694;23.350;2023-11-19T00:25:35;95494.78;;;2.85;88.81
51083;BME280;37131;42.694;23.350;2023-11-19T00:28:00;95495.72;;;2.92;89.21
51083;BME280;37131;42.694;23.350;2023-11-19T00:30:26;95491.59;;;3.06;88.37
51083;BME280;37131;42.694;23.350;2023-11-19T00:32:51;95499.53;;;2.96;88.81
51083;BME280;37131;42.694;23.350;2023-11-19T00:35:16;95497.09;;;3.03;88.41
51083;BME280;37131;42.694;23.350;2023-11-19T00:37:42;95486.72;;;2.88;88.01
51083;BME280;37131;42.694;23.350;2023-11-19T00:40:08;95462.88;;;2.86;88.95
51083;BME280;37131;42.694;23.350;2023-11-19T00:42:35;95488.81;;;2.85;88.56
51083;BME280;37131;42.694;23.350;2023-11-19T00:45:01;95504.06;;;2.94;88.15
51083;BME280;37131;42.694;23.350;2023-11-19T00:47:26;95501.81;;;2.91;89.11
51083;BME280;37131;42.694;23.350;2023-11-19T00:49:52;95510.22;;;2.85;88.91
51083;BME280;37131;42.694;23.350;2023-11-19T00:52:17;95498.56;;;2.97;88.77
51083;BME280;37131;42.694;23.350;2023-11-19T00:54:43;95505.25;;;3.07;87.91
51083;BME280;37131;42.694;23.350;2023-11-19T00:57:09;95473.25;;;2.78;88.65
51083;BME280;37131;42.694;23.350;2023-11-19T00:59:34;95498.91;;;2.94;89.45
51083;BME280;37131;42.694;23.350;2023-11-19T01:02:00;95511.06;;;3.09;88.65
51083;BME280;37131;42.694;23.350;2023-11-19T01:04:35;95491.38;;;2.85;88.71
51083;BME280;37131;42.694;23.350;2023-11-19T01:07:04;95505.84;;;2.94;89.14
51083;BME280;37131;42.694;23.350;2023-11-19T01:09:31;95505.00;;;2.93;89.53
51083;BME280;37131;42.694;23.350;2023-11-19T01:12:03;95517.72;;;2.95;89.84
51083;BME280;37131;42.694;23.350;2023-11-19T01:14:29;95517.72;;;2.95;89.22
51083;BME280;37131;42.694;23.350;2023-11-19T01:16:55;95496.59;;;2.76;89.70
51083;BME280;37131;42.694;23.350;2023-11-19T01:19:23;95508.25;;;2.95;88.84
51083;BME280;37131;42.694;23.350;2023-11-19T01:21:50;95500.63;;;3.02;87.92
51083;BME280;37131;42.694;23.350;2023-11-19T01:24:15;95489.44;;;2.87;88.13
51083;BME280;37131;42.694;23.350;2023-11-19T01:26:41;95493.13;;;2.92;88.06
51083;BME280;37131;42.694;23.350;2023-11-19T01:29:13;95500.16;;;2.98;87.39
51083;BME280;37131;42.694;23.350;2023-11-19T01:31:42;95504.41;;;2.91;87.98
51083;BME280;37131;42.694;23.350;2023-11-19T01:34:08;95514.69;;;2.91;88.65
51083;BME280;37131;42.694;23.350;2023-11-19T01:36:34;95522.78;;;2.80;89.23
51083;BME280;37131;42.694;23.350;2023-11-19T01:39:00;95519.25;;;2.81;89.35
51083;BME280;37131;42.694;23.350;2023-11-19T01:41:27;95493.19;;;2.76;88.80
51083;BME280;37131;42.694;23.350;2023-11-19T01:43:53;95505.94;;;3.01;88.07
51083;BME280;37131;42.694;23.350;2023-11-19T01:46:19;95513.41;;;2.95;88.34
51083;BME280;37131;42.694;23.350;2023-11-19T01:48:45;95513.56;;;2.94;89.02
51083;BME280;37131;42.694;23.350;2023-11-19T01:51:12;95531.09;;;2.90;88.77
51083;BME280;37131;42.694;23.350;2023-11-19T01:53:39;95519.44;;;2.79;87.79
51083;BME280;37131;42.694;23.350;2023-11-19T01:56:07;95523.31;;;2.67;87.13
51083;BME280;37131;42.694;23.350;2023-11-19T01:58:39;95528.75;;;2.41;88.46
51083;BME280;37131;42.694;23.350;2023-11-19T02:01:06;95501.41;;;2.32;87.59
51083;BME280;37131;42.694;23.350;2023-11-19T02:03:32;95516.50;;;2.51;88.87
51083;BME280;37131;42.694;23.350;2023-11-19T02:05:59;95521.31;;;2.54;87.66
51083;BME280;37131;42.694;23.350;2023-11-19T02:08:24;95514.53;;;2.61;87.30
51083;BME280;37131;42.694;23.350;2023-11-19T02:10:51;95507.75;;;2.60;87.57
51083;BME280;37131;42.694;23.350;2023-11-19T02:13:17;95513.91;;;2.51;86.58
51083;BME280;37131;42.694;23.350;2023-11-19T02:15:43;95499.94;;;2.45;87.12
51083;BME280;37131;42.694;23.350;2023-11-19T02:20:48;95502.69;;;2.44;87.91
51083;BME280;37131;42.694;23.350;2023-11-19T02:23:15;95499.78;;;2.47;87.19
51083;BME280;37131;42.694;23.350;2023-11-19T02:25:43;95468.78;;;2.32;87.24
51083;BME280;37131;42.694;23.350;2023-11-19T02:28:10;95504.75;;;2.49;88.35
51083;BME280;37131;42.694;23.350;2023-11-19T02:30:38;95516.69;;;2.41;87.44
51083;BME280;37131;42.694;23.350;2023-11-19T02:33:04;95520.22;;;2.40;87.65
51083;BME280;37131;42.694;23.350;2023-11-19T02:35:31;95496.09;;;2.41;87.85
51083;BME280;37131;42.694;23.350;2023-11-19T02:37:58;95490.59;;;2.44;87.83
51083;BME280;37131;42.694;23.350;2023-11-19T02:40:25;95496.53;;;2.45;87.27
51083;BME280;37131;42.694;23.350;2023-11-19T02:42:54;95498.22;;;2.30;87.17
51083;BME280;37131;42.694;23.350;2023-11-19T02:45:22;95502.25;;;2.32;88.42
51083;BME280;37131;42.694;23.350;2023-11-19T02:47:48;95500.16;;;2.27;88.82
51083;BME280;37131;42.694;23.350;2023-11-19T02:50:13;95498.41;;;2.20;88.64
51083;BME280;37131;42.694;23.350;2023-11-19T02:52:42;95505.16;;;2.13;89.62
51083;BME280;37131;42.694;23.350;2023-11-19T02:55:08;95506.13;;;2.20;89.26
51083;BME280;37131;42.694;23.350;2023-11-19T02:57:40;95499.56;;;2.17;89.29
51083;BME280;37131;42.694;23.350;2023-11-19T03:00:21;95490.75;;;1.95;90.46
51083;BME280;37131;42.694;23.350;2023-11-19T03:02:50;95503.47;;;1.97;90.33
51083;BME280;37131;42.694;23.350;2023-11-19T03:05:25;95504.72;;;2.09;90.23
51083;BME280;37131;42.694;23.350;2023-11-19T03:07:50;95496.38;;;2.07;91.05
51083;BME280;37131;42.694;23.350;2023-11-19T03:10:16;95494.75;;;2.14;90.92
51083;BME280;37131;42.694;23.350;2023-11-19T03:12:43;95508.56;;;2.13;90.43
51083;BME280;37131;42.694;23.350;2023-11-19T03:15:09;95502.31;;;2.07;89.56
51083;BME280;37131;42.694;23.350;2023-11-19T03:17:42;95485.66;;;1.70;90.21
51083;BME280;37131;42.694;23.350;2023-11-19T03:20:09;95513.09;;;1.95;90.57
51083;BME280;37131;42.694;23.350;2023-11-19T03:22:39;95499.56;;;2.09;90.18
51083;BME280;37131;42.694;23.350;2023-11-19T03:25:07;95510.81;;;2.08;90.72
51083;BME280;37131;42.694;23.350;2023-11-19T03:27:36;95508.72;;;2.12;89.98
51083;BME280;37131;42.694;23.350;2023-11-19T03:30:04;95496.88;;;2.02;91.51
51083;BME280;37131;42.694;23.350;2023-11-19T03:32:31;95501.13;;;2.18;89.88
51083;BME280;37131;42.694;23.350;2023-11-19T03:34:57;95507.44;;;2.16;90.95
51083;BME280;37131;42.694;23.350;2023-11-19T03:37:26;95501.97;;;2.10;90.83
51083;BME280;37131;42.694;23.350;2023-11-19T03:39:51;95480.19;;;1.82;89.17
51083;BME280;37131;42.694;23.350;2023-11-19T03:42:19;95515.16;;;2.07;90.22
51083;BME280;37131;42.694;23.350;2023-11-19T03:44:44;95518.03;;;2.21;89.19
51083;BME280;37131;42.694;23.350;2023-11-19T03:47:09;95534.78;;;2.00;89.67
51083;BME280;37131;42.694;23.350;2023-11-19T03:49:35;95538.47;;;1.98;90.27
51083;BME280;37131;42.694;23.350;2023-11-19T03:52:00;95542.50;;;2.08;88.88
51083;BME280;37131;42.694;23.350;2023-11-19T03:54:26;95551.81;;;1.93;89.95
51083;BME280;37131;42.694;23.350;2023-11-19T03:56:53;95543.28;;;2.01;90.23
51083;BME280;37131;42.694;23.350;2023-11-19T03:59:18;95532.53;;;2.05;91.17
51083;BME280;37131;42.694;23.350;2023-11-19T04:01:45;95543.63;;;2.14;90.07
51083;BME280;37131;42.694;23.350;2023-11-19T04:04:11;95541.88;;;1.98;90.67
51083;BME280;37131;42.694;23.350;2023-11-19T04:06:36;95541.03;;;2.06;90.23
51083;BME280;37131;42.694;23.350;2023-11-19T04:09:02;95537.53;;;2.07;89.88
51083;BME280;37131;42.694;23.350;2023-11-19T04:11:27;95557.75;;;2.10;89.53
51083;BME280;37131;42.694;23.350;2023-11-19T04:13:53;95576.06;;;2.15;89.83
51083;BME280;37131;42.694;23.350;2023-11-19T04:16:18;95580.06;;;2.34;88.19
51083;BME280;37131;42.694;23.350;2023-11-19T04:18:43;95576.03;;;2.32;89.04
51083;BME280;37131;42.694;23.350;2023-11-19T04:21:11;95577.66;;;2.33;88.09
51083;BME280;37131;42.694;23.350;2023-11-19T04:23:36;95566.38;;;2.42;87.73
51083;BME280;37131;42.694;23.350;2023-11-19T04:26:03;95557.22;;;2.31;87.78
51083;BME280;37131;42.694;23.350;2023-11-19T04:28:31;95565.06;;;2.46;88.80
51083;BME280;37131;42.694;23.350;2023-11-19T04:30:57;95564.72;;;2.57;87.39
51083;BME280;37131;42.694;23.350;2023-11-19T04:33:22;95577.94;;;2.54;87.31
51083;BME280;37131;42.694;23.350;2023-11-19T04:35:47;95578.72;;;2.46;87.12
51083;BME280;37131;42.694;23.350;2023-11-19T04:38:13;95581.19;;;2.32;87.87
51083;BME280;37131;42.694;23.350;2023-11-19T04:40:38;95585.69;;;2.30;87.81
51083;BME280;37131;42.694;23.350;2023-11-19T04:43:04;95590.69;;;2.23;88.31
51083;BME280;37131;42.694;23.350;2023-11-19T04:45:29;95605.66;;;2.19;88.15
51083;BME280;37131;42.694;23.350;2023-11-19T04:47:54;95602.88;;;2.37;87.33
51083;BME280;37131;42.694;23.350;2023-11-19T04:50:20;95596.28;;;2.35;88.58
51083;BME280;37131;42.694;23.350;2023-11-19T04:52:45;95602.13;;;2.20;88.69
51083;BME280;37131;42.694;23.350;2023-11-19T04:55:12;95600.66;;;2.09;88.58
51083;BME280;37131;42.694;23.350;2023-11-19T04:57:39;95595.50;;;2.42;87.92
51083;BME280;37131;42.694;23.350;2023-11-19T05:00:05;95602.56;;;2.40;88.05
51083;BME280;37131;42.694;23.350;2023-11-19T05:02:30;95609.00;;;2.44;86.99
51083;BME280;37131;42.694;23.350;2023-11-19T05:04:56;95603.34;;;2.57;85.99
51083;BME280;37131;42.694;23.350;2023-11-19T05:07:22;95601.13;;;2.21;86.68
51083;BME280;37131;42.694;23.350;2023-11-19T05:09:47;95629.91;;;2.50;86.33
51083;BME280;37131;42.694;23.350;2023-11-19T05:12:12;95636.84;;;2.33;87.11
51083;BME280;37131;42.694;23.350;2023-11-19T05:14:38;95628.78;;;2.44;86.49
51083;BME280;37131;42.694;23.350;2023-11-19T05:17:04;95616.41;;;2.39;86.44
51083;BME280;37131;42.694;23.350;2023-11-19T05:19:29;95617.22;;;2.32;86.46
51083;BME280;37131;42.694;23.350;2023-11-19T05:21:54;95621.41;;;2.41;86.22
51083;BME280;37131;42.694;23.350;2023-11-19T05:24:20;95607.53;;;2.50;86.86
51083;BME280;37131;42.694;23.350;2023-11-19T05:26:45;95616.25;;;2.33;86.29
51083;BME280;37131;42.694;23.350;2023-11-19T05:29:12;95611.13;;;2.24;87.05
51083;BME280;37131;42.694;23.350;2023-11-19T05:31:37;95617.38;;;2.38;86.03
51083;BME280;37131;42.694;23.350;2023-11-19T05:34:03;95614.94;;;2.45;85.60
51083;BME280;37131;42.694;23.350;2023-11-19T05:36:29;95620.28;;;2.35;86.55
51083;BME280;37131;42.694;23.350;2023-11-19T05:38:55;95626.53;;;2.41;85.94
51083;BME280;37131;42.694;23.350;2023-11-19T05:41:20;95629.91;;;2.50;86.21
51083;BME280;37131;42.694;23.350;2023-11-19T05:43:45;95628.63;;;2.45;85.86
51083;BME280;37131;42.694;23.350;2023-11-19T05:46:11;95622.84;;;2.35;86.11
51083;BME280;37131;42.694;23.350;2023-11-19T05:48:38;95632.59;;;2.65;86.71
51083;BME280;37131;42.694;23.350;2023-11-19T05:51:04;95644.03;;;2.62;85.59
51083;BME280;37131;42.694;23.350;2023-11-19T05:53:31;95628.09;;;2.67;85.21
51083;BME280;37131;42.694;23.350;2023-11-19T05:55:57;95642.44;;;2.44;86.51
51083;BME280;37131;42.694;23.350;2023-11-19T05:58:26;95635.03;;;2.58;85.64
51083;BME280;37131;42.694;23.350;2023-11-19T06:00:55;95638.09;;;2.45;84.30
51083;BME280;37131;42.694;23.350;2023-11-19T06:03:21;95650.16;;;2.44;86.38
51083;BME280;37131;42.694;23.350;2023-11-19T06:05:47;95654.19;;;2.47;86.22
51083;BME280;37131;42.694;23.350;2023-11-19T06:08:13;95653.38;;;2.55;86.35
51083;BME280;37131;42.694;23.350;2023-11-19T06:10:41;95663.53;;;2.32;86.68
51083;BME280;37131;42.694;23.350;2023-11-19T06:13:07;95620.44;;;2.25;87.50
51083;BME280;37131;42.694;23.350;2023-11-19T06:15:35;95668.78;;;2.71;85.92
51083;BME280;37131;42.694;23.350;2023-11-19T06:18:00;95655.06;;;2.79;83.72
51083;BME280;37131;42.694;23.350;2023-11-19T06:20:27;95662.50;;;2.74;84.42
51083;BME280;37131;42.694;23.350;2023-11-19T06:22:56;95655.16;;;2.46;85.55
51083;BME280;37131;42.694;23.350;2023-11-19T06:25:22;95651.41;;;2.65;85.51
51083;BME280;37131;42.694;23.350;2023-11-19T06:27:49;95651.09;;;2.68;85.09
51083;BME280;37131;42.694;23.350;2023-11-19T06:30:14;95654.44;;;2.77;85.09
51083;BME280;37131;42.694;23.350;2023-11-19T06:32:40;95651.53;;;2.80;83.55
51083;BME280;37131;42.694;23.350;2023-11-19T06:35:05;95640.66;;;2.61;85.39
51083;BME280;37131;42.694;23.350;2023-11-19T06:37:31;95639.97;;;2.76;83.42
51083;BME280;37131;42.694;23.350;2023-11-19T06:39:56;95658.97;;;2.75;82.77
51083;BME280;37131;42.694;23.350;2023-11-19T06:42:22;95652.41;;;2.56;83.75
51083;BME280;37131;42.694;23.350;2023-11-19T06:44:47;95652.88;;;2.68;84.24
51083;BME280;37131;42.694;23.350;2023-11-19T06:47:13;95656.28;;;2.52;85.31
51083;BME280;37131;42.694;23.350;2023-11-19T06:49:38;95667.84;;;2.48;84.33
51083;BME280;37131;42.694;23.350;2023-11-19T06:52:04;95665.91;;;2.58;85.09
51083;BME280;37131;42.694;23.350;2023-11-19T06:54:30;95660.59;;;2.68;83.51
51083;BME280;37131;42.694;23.350;2023-11-19T06:56:56;95632.50;;;2.25;83.79
51083;BME280;37131;42.694;23.350;2023-11-19T06:59:22;95652.28;;;2.33;84.89
51083;BME280;37131;42.694;23.350;2023-11-19T07:01:48;95661.91;;;2.47;83.88
51083;BME280;37131;42.694;23.350;2023-11-19T07:04:13;95674.44;;;2.67;82.91
51083;BME280;37131;42.694;23.350;2023-11-19T07:06:39;95666.06;;;2.65;81.46
51083;BME280;37131;42.694;23.350;2023-11-19T07:09:06;95671.84;;;2.75;81.17
51083;BME280;37131;42.694;23.350;2023-11-19T07:11:38;95655.63;;;2.33;81.56
51083;BME280;37131;42.694;23.350;2023-11-19T07:14:04;95670.28;;;2.57;83.04
51083;BME280;37131;42.694;23.350;2023-11-19T07:16:30;95667.94;;;2.79;82.45
51083;BME280;37131;42.694;23.350;2023-11-19T07:18:56;95663.31;;;2.74;81.75
51083;BME280;37131;42.694;23.350;2023-11-19T07:21:21;95671.81;;;2.83;83.77
51083;BME280;37131;42.694;23.350;2023-11-19T07:23:47;95673.22;;;3.02;81.63
51083;BME280;37131;42.694;23.350;2023-11-19T07:26:12;95680.81;;;2.87;81.17
51083;BME280;37131;42.694;23.350;2023-11-19T07:28:37;95674.91;;;2.62;81.91
51083;BME280;37131;42.694;23.350;2023-11-19T07:31:05;95694.19;;;2.83;81.62
51083;BME280;37131;42.694;23.350;2023-11-19T07:33:32;95708.22;;;2.72;81.19
51083;BME280;37131;42.694;23.350;2023-11-19T07:35:58;95714.16;;;2.80;81.12
51083;BME280;37131;42.694;23.350;2023-11-19T07:38:24;95694.22;;;2.66;81.10
51083;BME280;37131;42.694;23.350;2023-11-19T07:40:49;95707.06;;;2.83;80.74
51083;BME280;37131;42.694;23.350;2023-11-19T07:43:14;95709.97;;;2.79;80.96
51083;BME280;37131;42.694;23.350;2023-11-19T07:45:40;95714.84;;;2.50;81.22
51083;BME280;37131;42.694;23.350;2023-11-19T07:48:10;95702.44;;;2.45;80.99
51083;BME280;37131;42.694;23.350;2023-11-19T07:50:36;95713.84;;;2.67;82.49
51083;BME280;37131;42.694;23.350;2023-11-19T07:53:01;95713.53;;;2.62;80.67
51083;BME280;37131;42.694;23.350;2023-11-19T07:55:29;95714.81;;;2.58;79.63
51083;BME280;37131;42.694;23.350;2023-11-19T07:57:55;95727.53;;;2.68;79.76
51083;BME280;37131;42.694;23.350;2023-11-19T08:00:21;95724.50;;;2.56;80.70
51083;BME280;37131;42.694;23.350;2023-11-19T08:02:46;95719.00;;;2.59;80.28
51083;BME280;37131;42.694;23.350;2023-11-19T08:05:11;95728.19;;;2.53;80.34
51083;BME280;37131;42.694;23.350;2023-11-19T08:07:37;95740.56;;;2.58;81.17
51083;BME280;37131;42.694;23.350;2023-11-19T08:10:03;95725.63;;;2.61;79.50
51083;BME280;37131;42.694;23.350;2023-11-19T08:12:30;95728.81;;;2.63;79.77
51083;BME280;37131;42.694;23.350;2023-11-19T08:14:56;95719.34;;;2.56;80.14
51083;BME280;37131;42.694;23.350;2023-11-19T08:17:23;95736.88;;;2.60;81.30
51083;BME280;37131;42.694;23.350;2023-11-19T08:19:49;95731.22;;;2.57;80.70
51083;BME280;37131;42.694;23.350;2023-11-19T08:22:14;95724.47;;;2.64;81.01
51083;BME280;37131;42.694;23.350;2023-11-19T08:24:41;95741.69;;;2.80;80.14
51083;BME280;37131;42.694;23.350;2023-11-19T08:27:07;95742.63;;;2.87;79.36
51083;BME280;37131;42.694;23.350;2023-11-19T08:29:32;95745.66;;;2.99;78.79
51083;BME280;37131;42.694;23.350;2023-11-19T08:32:00;95706.78;;;2.61;78.03
51083;BME280;37131;42.694;23.350;2023-11-19T08:34:27;95732.16;;;2.89;77.97
51083;BME280;37131;42.694;23.350;2023-11-19T08:36:52;95738.44;;;2.86;79.46
51083;BME280;37131;42.694;23.350;2023-11-19T08:39:21;95745.06;;;2.80;79.38
51083;BME280;37131;42.694;23.350;2023-11-19T08:41:47;95757.63;;;2.84;79.01
51083;BME280;37131;42.694;23.350;2023-11-19T08:44:13;95767.13;;;2.75;78.33
51083;BME280;37131;42.694;23.350;2023-11-19T08:46:39;95758.56;;;2.74;78.44
51083;BME280;37131;42.694;23.350;2023-11-19T08:49:05;95751.47;;;2.93;78.05
51083;BME280;37131;42.694;23.350;2023-11-19T08:51:33;95735.69;;;2.96;76.91
51083;BME280;37131;42.694;23.350;2023-11-19T08:53:58;95750.34;;;2.87;76.72
51083;BME280;37131;42.694;23.350;2023-11-19T08:56:24;95763.06;;;2.97;77.05
51083;BME280;37131;42.694;23.350;2023-11-19T08:58:49;95758.25;;;2.77;77.02
51083;BME280;37131;42.694;23.350;2023-11-19T09:01:14;95761.00;;;2.92;77.24
51083;BME280;37131;42.694;23.350;2023-11-19T09:03:40;95749.56;;;2.87;76.55
51083;BME280;37131;42.694;23.350;2023-11-19T09:06:06;95739.69;;;3.07;76.78
51083;BME280;37131;42.694;23.350;2023-11-19T09:08:31;95725.34;;;3.21;76.98
51083;BME280;37131;42.694;23.350;2023-11-19T09:10:56;95727.44;;;3.17;75.75
51083;BME280;37131;42.694;23.350;2023-11-19T09:13:22;95730.94;;;3.32;75.63
51083;BME280;37131;42.694;23.350;2023-11-19T09:15:48;95714.88;;;3.22;75.21
51083;BME280;37131;42.694;23.350;2023-11-19T09:18:13;95729.16;;;3.33;74.40
51083;BME280;37131;42.694;23.350;2023-11-19T09:20:39;95726.91;;;3.30;74.27
51083;BME280;37131;42.694;23.350;2023-11-19T09:23:05;95738.22;;;3.12;74.11
51083;BME280;37131;42.694;23.350;2023-11-19T09:25:31;95737.97;;;3.47;74.38
51083;BME280;37131;42.694;23.350;2023-11-19T09:27:59;95745.41;;;3.42;73.16
51083;BME280;37131;42.694;23.350;2023-11-19T09:30:24;95744.06;;;3.54;72.67
51083;BME280;37131;42.694;23.350;2023-11-19T09:32:49;95750.66;;;3.57;72.11
51083;BME280;37131;42.694;23.350;2023-11-19T09:35:15;95738.84;;;3.31;72.56
51083;BME280;37131;42.694;23.350;2023-11-19T09:37:41;95730.00;;;3.17;75.25
51083;BME280;37131;42.694;23.350;2023-11-19T09:40:09;95726.00;;;3.14;74.76
51083;BME280;37131;42.694;23.350;2023-11-19T09:42:43;95706.03;;;3.16;74.21
51083;BME280;37131;42.694;23.350;2023-11-19T09:45:16;95711.19;;;3.16;73.84
51083;BME280;37131;42.694;23.350;2023-11-19T09:47:45;95710.22;;;3.09;73.59
51083;BME280;37131;42.694;23.350;2023-11-19T09:50:18;95688.88;;;3.32;72.74
51083;BME280;37131;42.694;23.350;2023-11-19T09:52:45;95673.72;;;3.37;72.70
51083;BME280;37131;42.694;23.350;2023-11-19T09:55:12;95667.03;;;3.51;71.53
51083;BME280;37131;42.694;23.350;2023-11-19T09:57:40;95670.56;;;3.27;73.34
51083;BME280;37131;42.694;23.350;2023-11-19T10:00:10;95684.84;;;3.38;72.75
51083;BME280;37131;42.694;23.350;2023-11-19T10:02:39;95677.78;;;3.63;72.57
51083;BME280;37131;42.694;23.350;2023-11-19T10:05:08;95685.91;;;3.51;69.91
51083;BME280;37131;42.694;23.350;2023-11-19T10:07:37;95675.19;;;3.40;70.63
51083;BME280;37131;42.694;23.350;2023-11-19T10:10:04;95672.34;;;3.26;73.00
51083;BME280;37131;42.694;23.350;2023-11-19T10:12:30;95674.53;;;3.38;73.47
51083;BME280;37131;42.694;23.350;2023-11-19T10:14:57;95654.56;;;3.40;72.87
51083;BME280;37131;42.694;23.350;2023-11-19T10:17:28;95660.38;;;3.65;72.69
51083;BME280;37131;42.694;23.350;2023-11-19T10:19:54;95675.88;;;3.57;72.07
51083;BME280;37131;42.694;23.350;2023-11-19T10:22:22;95680.84;;;3.66;72.77
51083;BME280;37131;42.694;23.350;2023-11-19T10:24:48;95678.59;;;3.86;70.38
51083;BME280;37131;42.694;23.350;2023-11-19T10:27:13;95644.00;;;3.18;71.71
51083;BME280;37131;42.694;23.350;2023-11-19T10:29:39;95672.09;;;3.67;72.35
51083;BME280;37131;42.694;23.350;2023-11-19T10:32:05;95640.53;;;3.65;71.20
51083;BME280;37131;42.694;23.350;2023-11-19T10:34:31;95656.59;;;3.76;70.72
51083;BME280;37131;42.694;23.350;2023-11-19T10:36:56;95655.56;;;3.85;70.79
51083;BME280;37131;42.694;23.350;2023-11-19T10:39:22;95651.56;;;3.82;70.66
51083;BME280;37131;42.694;23.350;2023-11-19T10:41:49;95627.78;;;3.41;69.84
51083;BME280;37131;42.694;23.350;2023-11-19T10:44:31;95660.78;;;3.77;71.74
51083;BME280;37131;42.694;23.350;2023-11-19T10:46:59;95661.50;;;3.62;70.37
51083;BME280;37131;42.694;23.350;2023-11-19T10:49:24;95663.25;;;3.93;70.73
51083;BME280;37131;42.694;23.350;2023-11-19T10:51:55;95673.34;;;3.80;68.32
51083;BME280;37131;42.694;23.350;2023-11-19T10:54:24;95663.31;;;3.85;69.72
51083;BME280;37131;42.694;23.350;2023-11-19T10:57:01;95656.41;;;3.54;69.85
51083;BME280;37131;42.694;23.350;2023-11-19T10:59:30;95656.41;;;3.54;70.68
51083;BME280;37131;42.694;23.350;2023-11-19T11:01:56;95648.81;;;3.84;69.19
51083;BME280;37131;42.694;23.350;2023-11-19T11:04:25;95628.19;;;3.53;71.35
51083;BME280;37131;42.694;23.350;2023-11-19T11:06:58;95633.03;;;3.79;67.83
51083;BME280;37131;42.694;23.350;2023-11-19T11:09:28;95639.91;;;3.86;69.45
51083;BME280;37131;42.694;23.350;2023-11-19T11:11:55;95634.00;;;3.78;68.84
51083;BME280;37131;42.694;23.350;2023-11-19T11:14:23;95632.69;;;3.82;68.39
51083;BME280;37131;42.694;23.350;2023-11-19T11:16:49;95626.97;;;3.72;68.71
51083;BME280;37131;42.694;23.350;2023-11-19T11:19:16;95627.59;;;3.97;68.92
51083;BME280;37131;42.694;23.350;2023-11-19T11:21:45;95579.22;;;3.29;69.08
51083;BME280;37131;42.694;23.350;2023-11-19T11:24:48;95622.16;;;3.68;69.85
51083;BME280;37131;42.694;23.350;2023-11-19T11:27:46;95624.06;;;4.13;68.64
51083;BME280;37131;42.694;23.350;2023-11-19T11:30:25;95622.09;;;4.53;66.87
51083;BME280;37131;42.694;23.350;2023-11-19T11:32:56;95620.69;;;5.10;64.42
51083;BME280;37131;42.694;23.350;2023-11-19T11:35:30;95610.66;;;5.37;60.82
51083;BME280;37131;42.694;23.350;2023-11-19T11:38:09;95623.38;;;5.75;61.18
51083;BME280;37131;42.694;23.350;2023-11-19T11:40:35;95604.09;;;5.56;60.23
51083;BME280;37131;42.694;23.350;2023-11-19T11:43:02;95583.03;;;6.02;61.54
51083;BME280;37131;42.694;23.350;2023-11-19T11:45:38;95585.78;;;6.22;57.21
51083;BME280;37131;42.694;23.350;2023-11-19T11:48:13;95568.78;;;5.70;58.20
51083;BME280;37131;42.694;23.350;2023-11-19T11:50:59;95578.56;;;5.31;60.04
51083;BME280;37131;42.694;23.350;2023-11-19T11:53:25;95540.31;;;5.05;60.20
51083;BME280;37131;42.694;23.350;2023-11-19T11:55:54;95578.91;;;5.86;59.25
51083;BME280;37131;42.694;23.350;2023-11-19T11:58:25;95585.50;;;5.67;58.26
51083;BME280;37131;42.694;23.350;2023-11-19T12:00:51;95586.91;;;5.12;60.68
51083;BME280;37131;42.694;23.350;2023-11-19T12:03:26;95592.00;;;5.05;60.75
51083;BME280;37131;42.694;23.350;2023-11-19T12:05:52;95584.63;;;4.72;61.06
51083;BME280;37131;42.694;23.350;2023-11-19T12:08:25;95584.19;;;4.53;63.04
51083;BME280;37131;42.694;23.350;2023-11-19T12:10:57;95555.44;;;4.56;63.11
51083;BME280;37131;42.694;23.350;2023-11-19T12:13:24;95556.84;;;4.74;62.56
51083;BME280;37131;42.694;23.350;2023-11-19T12:18:29;95544.19;;;4.64;62.09
51083;BME280;37131;42.694;23.350;2023-11-19T12:20:56;95557.25;;;4.92;60.67
51083;BME280;37131;42.694;23.350;2023-11-19T12:23:24;95551.88;;;5.09;61.38
51083;BME280;37131;42.694;23.350;2023-11-19T12:25:53;95507.25;;;5.65;60.14
51083;BME280;37131;42.694;23.350;2023-11-19T12:28:18;95541.84;;;6.71;56.78
51083;BME280;37131;42.694;23.350;2023-11-19T12:30:46;95536.19;;;7.02;55.72
51083;BME280;37131;42.694;23.350;2023-11-19T12:33:14;95533.56;;;7.64;52.74
51083;BME280;37131;42.694;23.350;2023-11-19T12:35:47;95537.75;;;7.98;52.79
51083;BME280;37131;42.694;23.350;2023-11-19T12:38:19;95516.72;;;7.33;52.47
51083;BME280;37131;42.694;23.350;2023-11-19T12:41:06;95525.03;;;6.60;55.49
51083;BME280;37131;42.694;23.350;2023-11-19T12:43:32;95496.78;;;6.23;55.09
51083;BME280;37131;42.694;23.350;2023-11-19T12:46:01;95513.50;;;6.27;55.28
51083;BME280;37131;42.694;23.350;2023-11-19T12:48:27;95507.06;;;6.10;56.67
51083;BME280;37131;42.694;23.350;2023-11-19T12:50:56;95510.75;;;6.01;58.22
51083;BME280;37131;42.694;23.350;2023-11-19T12:53:27;95519.81;;;5.90;57.63
51083;BME280;37131;42.694;23.350;2023-11-19T12:55:55;95516.50;;;5.31;58.54
51083;BME280;37131;42.694;23.350;2023-11-19T12:58:35;95528.34;;;5.40;58.83
51083;BME280;37131;42.694;23.350;2023-11-19T13:01:24;95520.88;;;5.31;59.90
51083;BME280;37131;42.694;23.350;2023-11-19T13:03:50;95506.53;;;5.28;60.40
51083;BME280;37131;42.694;23.350;2023-11-19T13:06:16;95499.66;;;5.35;61.22